Time;durP1;ratioP1;P1;durP2;ratioP2;P2;SDS_P1;SDS_P2;PMS_P1;PMS_P2;Temp;Humidity;BMP_temperature;BMP_pressure;BME280_temperature;BME280_humidity;BME280_pressure;Samples;Min_cycle;Max_cycle;Signal;HPM_P1;HPM_P2
2022/03/05 00:02:14;;;;;;;43.08;19.08;;;;;;;-0.65;80.75;102022.66;4997249;28;20036;-75
2022/03/05 00:04:39;;;;;;;42.25;19.63;;;;;;;-0.66;81.09;102029.41;4996969;28;20023;-76
2022/03/05 00:07:05;;;;;;;40.50;20.08;;;;;;;-0.56;81.39;102050.56;4997052;28;20101;-79
2022/03/05 00:09:30;;;;;;;43.38;19.45;;;;;;;-0.60;81.42;102048.84;4996596;28;20022;-75
2022/03/05 00:11:55;;;;;;;39.75;20.30;;;;;;;-0.75;82.14;102037.00;4996743;28;20058;-75
2022/03/05 00:14:21;;;;;;;43.20;20.42;;;;;;;-0.63;82.25;102064.06;4996750;28;20030;-75
2022/03/05 00:16:46;;;;;;;43.90;20.10;;;;;;;-0.81;81.82;102036.97;4996814;28;20073;-75
2022/03/05 00:19:11;;;;;;;45.90;20.58;;;;;;;-0.80;82.26;102047.94;4996733;28;20062;-76
2022/03/05 00:21:37;;;;;;;44.45;19.92;;;;;;;-0.84;82.68;102042.03;4996730;28;20081;-75
2022/03/05 00:24:02;;;;;;;44.00;20.17;;;;;;;-0.84;82.64;102042.03;4996412;28;20165;-76
2022/03/05 00:26:27;;;;;;;44.30;20.92;;;;;;;-0.85;82.91;102042.03;4996185;28;20042;-74
2022/03/05 00:28:53;;;;;;;45.85;20.30;;;;;;;-0.79;82.95;102063.16;4996646;28;20026;-75
2022/03/05 00:31:18;;;;;;;47.45;22.10;;;;;;;-0.80;83.63;102058.09;4996623;28;20030;-76
2022/03/05 00:33:43;;;;;;;44.45;20.35;;;;;;;-0.80;83.16;102061.47;4996526;28;20157;-75
2022/03/05 00:36:09;;;;;;;49.90;21.20;;;;;;;-0.94;83.69;102045.38;4996481;28;20038;-75
2022/03/05 00:38:34;;;;;;;49.78;22.73;;;;;;;-0.83;84.08;102060.63;4996319;28;20034;-75
2022/03/05 00:41:00;;;;;;;49.70;21.63;;;;;;;-0.87;83.64;102059.78;4996070;28;20022;-77
2022/03/05 00:43:25;;;;;;;48.03;21.38;;;;;;;-0.90;83.71;102062.28;4996215;28;20058;-75
2022/03/05 00:45:50;;;;;;;49.88;21.95;;;;;;;-1.10;84.25;102036.84;4996372;28;20041;-75
2022/03/05 00:48:16;;;;;;;47.83;22.15;;;;;;;-0.93;84.35;102064.81;4996090;28;20440;-75
2022/03/05 00:50:41;;;;;;;49.17;22.90;;;;;;;-0.94;84.39;102063.97;4995907;28;20042;-76
2022/03/05 00:53:07;;;;;;;48.42;23.17;;;;;;;-1.04;84.47;102041.09;4996013;28;20026;-75
2022/03/05 00:55:33;;;;;;;53.05;22.73;;;;;;;-0.98;84.52;102053.81;4995964;28;20468;-75
2022/03/05 00:57:59;;;;;;;52.28;23.50;;;;;;;-1.01;84.57;102053.78;4995845;28;20508;-77
2022/03/05 01:00:24;;;;;;;49.90;21.58;;;;;;;-1.05;84.42;102052.94;4996084;28;20069;-75
2022/03/05 01:02:53;;;;;;;50.53;23.35;;;;;;;-1.28;84.99;102017.34;4996103;28;20424;-74
2022/03/05 01:05:18;;;;;;;50.33;23.38;;;;;;;-1.10;84.74;102057.13;4994968;28;20037;-75
2022/03/05 01:07:43;;;;;;;53.00;23.17;;;;;;;-1.11;85.74;102063.03;4995611;28;20033;-75
2022/03/05 01:10:09;;;;;;;48.72;22.10;;;;;;;-1.17;85.23;102053.72;4995765;28;20058;-74
2022/03/05 01:12:35;;;;;;;52.97;22.52;;;;;;;-1.18;85.30;102051.16;5010561;28;20575;-75
2022/03/05 01:15:01;;;;;;;50.33;22.85;;;;;;;-1.25;85.24;102045.25;4995780;28;20472;-77
2022/03/05 01:17:26;;;;;;;53.38;22.88;;;;;;;-1.23;85.57;102052.84;4995701;28;20034;-77
2022/03/05 01:19:52;;;;;;;50.45;22.88;;;;;;;-1.41;85.78;102027.41;4995719;28;20034;-75
2022/03/05 01:22:17;;;;;;;47.90;22.45;;;;;;;-1.36;86.01;102039.28;4995911;28;20038;-75
2022/03/05 01:24:43;;;;;;;50.95;23.45;;;;;;;-1.31;85.96;102046.88;4995671;28;20105;-75
2022/03/05 01:27:08;;;;;;;52.33;23.70;;;;;;;-1.53;86.06;102012.97;4995506;28;20494;-77
2022/03/05 01:29:33;;;;;;;55.45;25.48;;;;;;;-1.39;86.16;102034.16;4995445;28;20038;-74
2022/03/05 01:31:59;;;;;;;54.30;24.45;;;;;;;-1.48;86.14;102022.28;4995474;28;20056;-76
2022/03/05 01:34:24;;;;;;;48.83;22.48;;;;;;;-1.43;86.42;102045.13;4995427;28;20023;-75
2022/03/05 01:36:49;;;;;;;50.83;23.10;;;;;;;-1.53;86.49;102033.25;4995311;28;20494;-75
2022/03/05 01:39:16;;;;;;;56.55;23.42;;;;;;;-1.48;86.61;102045.09;4995271;28;20037;-75
2022/03/05 01:41:44;;;;;;;51.25;22.27;;;;;;;-1.50;87.15;102048.47;4995283;28;20077;-75
2022/03/05 01:44:10;;;;;;;54.95;24.15;;;;;;;-1.53;87.20;102045.91;4995068;28;20110;-74
2022/03/05 01:46:38;;;;;;;45.60;23.20;;;;;;;-1.55;86.87;102053.50;4995266;28;20046;-74
2022/03/05 01:49:07;;;;;;;54.55;23.23;;;;;;;-1.65;87.16;102039.09;4995390;28;20034;-75
2022/03/05 01:51:33;;;;;;;49.90;21.67;;;;;;;-1.74;87.05;102034.81;4995452;28;20034;-74
2022/03/05 01:53:58;;;;;;;51.15;23.77;;;;;;;-1.67;86.94;102045.84;4994929;28;20561;-75
2022/03/05 01:56:25;;;;;;;52.72;23.80;;;;;;;-1.84;87.48;102027.97;4993808;28;20491;-75
2022/03/05 01:58:51;;;;;;;50.63;22.23;;;;;;;-1.87;87.23;102024.56;4994852;28;20046;-74
2022/03/05 02:01:21;;;;;;;52.90;24.17;;;;;;;-1.87;87.85;102025.44;4995173;28;20033;-74
2022/03/05 02:03:46;;;;;;;52.35;22.65;;;;;;;-1.76;87.94;102050.84;4995160;28;20109;-74
2022/03/05 02:06:11;;;;;;;50.78;22.90;;;;;;;-1.97;87.89;102018.56;5009942;28;20118;-75
2022/03/05 02:08:37;;;;;;;51.00;23.00;;;;;;;-1.85;87.89;102051.59;4994974;28;20057;-75
2022/03/05 02:11:02;;;;;;;50.53;23.35;;;;;;;-1.88;88.08;102050.72;4994745;28;20033;-75
2022/03/05 02:13:28;;;;;;;56.15;24.83;;;;;;;-2.06;88.06;102026.97;4994636;28;20034;-75
2022/03/05 02:15:56;;;;;;;53.40;23.88;;;;;;;-1.91;88.24;102054.06;4994604;28;20030;-75
2022/03/05 02:18:22;;;;;;;58.75;24.20;;;;;;;-2.03;88.49;102028.69;4994454;28;20369;-74
2022/03/05 02:20:49;;;;;;;49.55;23.42;;;;;;;-1.92;88.28;102044.78;4994683;28;20026;-75
2022/03/05 02:23:14;;;;;;;53.88;24.50;;;;;;;-1.98;88.31;102043.88;4994640;28;20026;-74
2022/03/05 02:25:53;;;;;;;52.33;25.50;;;;;;;-2.02;88.56;102043.88;4994543;28;20101;-75
2022/03/05 02:28:20;;;;;;;52.05;22.90;;;;;;;-2.02;88.76;102038.81;4994264;28;20026;-74
2022/03/05 02:30:46;;;;;;;51.33;23.58;;;;;;;-2.00;88.98;102036.28;4994391;28;20030;-76
2022/03/05 02:33:11;;;;;;;54.03;23.73;;;;;;;-2.07;89.14;102025.25;4994270;28;20076;-75
2022/03/05 02:35:37;;;;;;;57.47;23.45;;;;;;;-2.34;88.85;101982.03;4994490;28;20058;-75
2022/03/05 02:38:02;;;;;;;54.92;23.73;;;;;;;-2.20;89.19;102005.75;4994455;28;20029;-75
2022/03/05 02:40:28;;;;;;;57.38;24.85;;;;;;;-2.23;88.96;102003.22;4994332;28;20148;-75
2022/03/05 02:42:53;;;;;;;59.33;24.85;;;;;;;-2.35;89.37;101991.31;4993772;28;20030;-74
2022/03/05 02:45:18;;;;;;;51.40;22.83;;;;;;;-2.10;89.38;102029.44;4993985;28;20030;-73
2022/03/05 02:47:43;;;;;;;55.67;23.80;;;;;;;-2.12;89.55;102036.19;4994230;28;20113;-75
2022/03/05 02:50:09;;;;;;;52.22;24.02;;;;;;;-2.13;89.58;102037.03;4994081;28;20026;-75
2022/03/05 02:52:38;;;;;;;56.05;22.73;;;;;;;-2.22;89.40;102024.28;4994162;28;20354;-74
2022/03/05 02:55:04;;;;;;;59.20;25.58;;;;;;;-2.18;89.45;102036.13;4994035;28;20030;-74
2022/03/05 02:57:29;;;;;;;57.08;24.80;;;;;;;-2.24;89.54;102031.03;4993483;28;20031;-74
2022/03/05 02:59:55;;;;;;;57.05;23.88;;;;;;;-2.47;90.11;101992.84;4993711;28;20032;-74
2022/03/05 03:02:20;;;;;;;53.00;24.70;;;;;;;-2.27;90.31;102030.97;4993928;28;20121;-74
2022/03/05 03:04:46;;;;;;;59.75;24.55;;;;;;;-2.65;90.31;101981.75;4993810;28;20053;-75
2022/03/05 03:07:11;;;;;;;57.30;24.45;;;;;;;-2.53;90.04;102000.41;4993827;28;20464;-75
2022/03/05 03:09:36;;;;;;;57.28;25.25;;;;;;;-2.48;90.33;102009.72;4993734;28;20089;-75
2022/03/05 03:12:02;;;;;;;57.60;25.55;;;;;;;-2.36;90.19;102032.63;4993331;28;20113;-75
2022/03/05 03:14:27;;;;;;;55.70;24.50;;;;;;;-2.53;90.17;102010.50;4993609;28;20110;-74
2022/03/05 03:16:53;;;;;;;55.55;23.83;;;;;;;-2.58;90.18;102007.06;4993456;28;20026;-74
2022/03/05 03:19:18;;;;;;;56.17;24.30;;;;;;;-2.49;90.91;102025.72;4992657;28;20392;-75
2022/03/05 03:21:43;;;;;;;51.63;23.38;;;;;;;-2.65;90.22;102008.72;4993628;28;20049;-75
2022/03/05 03:24:09;;;;;;;54.58;25.80;;;;;;;-2.89;89.95;101977.28;4993579;28;20039;-75
2022/03/05 03:26:34;;;;;;;55.97;22.90;;;;;;;-2.68;90.48;102022.16;4993479;28;20463;-75
2022/03/05 03:28:59;;;;;;;54.08;21.58;;;;;;;-2.73;90.58;102026.31;4992437;28;20032;-75
2022/03/05 03:31:26;;;;;;;55.58;23.35;;;;;;;-2.80;90.24;102024.56;4993254;28;20076;-75
2022/03/05 03:33:52;;;;;;;51.08;23.08;;;;;;;-3.01;90.51;101999.88;4993594;28;20066;-74
2022/03/05 03:36:17;;;;;;;55.05;23.80;;;;;;;-3.03;90.52;102014.19;5008081;28;20121;-75
2022/03/05 03:38:43;;;;;;;48.47;21.08;;;;;;;-3.14;91.05;101995.53;4993473;28;20034;-75
2022/03/05 03:41:08;;;;;;;49.30;21.98;;;;;;;-3.07;90.65;102014.97;4993484;28;20066;-75
2022/03/05 03:43:34;;;;;;;58.10;24.48;;;;;;;-3.03;91.64;102024.28;4993252;28;20503;-75
2022/03/05 03:45:59;;;;;;;55.70;23.67;;;;;;;-3.04;91.54;102026.81;4993067;28;20041;-75
2022/03/05 03:48:25;;;;;;;50.45;22.25;;;;;;;-3.08;91.26;102030.13;4993427;28;20117;-75
2022/03/05 03:50:50;;;;;;;59.17;23.42;;;;;;;-3.44;91.67;101975.78;4993314;28;20395;-75
2022/03/05 03:53:16;;;;;;;57.17;24.25;;;;;;;-3.08;92.20;102036.00;5007774;28;20066;-75
2022/03/05 03:55:41;;;;;;;53.47;23.75;;;;;;;-3.18;91.67;102017.38;4993124;28;20034;-76
2022/03/05 03:58:07;;;;;;;54.90;23.35;;;;;;;-3.18;92.02;102027.47;4993056;28;20055;-75
2022/03/05 04:00:33;;;;;;;64.03;24.90;;;;;;;-3.24;92.46;102029.09;4993074;28;20034;-75
2022/03/05 04:03:02;;;;;;;57.90;24.08;;;;;;;-3.21;92.24;102036.69;4991846;28;20092;-75
2022/03/05 04:05:28;;;;;;;54.03;22.67;;;;;;;-3.22;92.79;102033.31;4991515;28;20039;-75
2022/03/05 04:10:38;;;;;;;55.53;25.10;;;;;;;-3.32;92.81;102018.88;4993553;28;20053;-75
2022/03/05 04:13:03;;;;;;;58.15;25.35;;;;;;;-3.39;92.92;102001.94;4992869;28;20460;-75
2022/03/05 04:15:29;;;;;;;56.70;24.30;;;;;;;-3.59;92.68;101973.91;4992902;28;20106;-75
2022/03/05 04:17:54;;;;;;;54.70;23.98;;;;;;;-3.43;92.43;102002.75;4993140;28;20026;-75
2022/03/05 04:20:19;;;;;;;54.53;23.50;;;;;;;-3.42;92.98;102003.59;4993198;28;20026;-77
2022/03/05 04:22:45;;;;;;;57.00;24.00;;;;;;;-3.25;93.00;102032.41;4993036;28;20018;-75
2022/03/05 04:25:10;;;;;;;54.53;24.33;;;;;;;-3.25;93.04;102030.75;4993056;28;20053;-75
2022/03/05 04:27:35;;;;;;;60.97;25.15;;;;;;;-3.23;93.36;102040.88;4993068;28;20022;-75
2022/03/05 04:30:01;;;;;;;56.92;23.88;;;;;;;-3.24;93.40;102031.63;5007445;28;20107;-75
2022/03/05 04:32:27;;;;;;;52.53;22.83;;;;;;;-3.25;93.33;102034.94;4993024;28;20077;-91
2022/03/05 04:34:52;;;;;;;59.50;24.73;;;;;;;-3.25;93.95;102040.84;4993863;28;20440;-90
2022/03/05 04:37:17;;;;;;;61.15;25.45;;;;;;;-3.24;93.84;102044.25;4993253;28;20245;-81
2022/03/05 04:39:43;;;;;;;64.07;25.30;;;;;;;-3.29;93.32;102036.59;4993467;28;20026;-81
2022/03/05 04:42:08;;;;;;;61.97;27.33;;;;;;;-3.24;93.61;102044.25;5150108;23;20531;-75
2022/03/05 04:44:34;;;;;;;59.05;24.50;;;;;;;-3.39;94.15;102016.25;4996279;28;20038;-78
2022/03/05 04:46:59;;;;;;;63.17;27.00;;;;;;;-3.23;94.10;102053.53;4996297;28;20105;-76
2022/03/05 04:49:24;;;;;;;61.22;25.40;;;;;;;-3.28;93.67;102040.81;4996456;28;20034;-78
2022/03/05 04:51:50;;;;;;;63.45;25.55;;;;;;;-3.25;93.99;102045.88;4996250;28;20519;-75
2022/03/05 04:54:16;;;;;;;59.88;25.63;;;;;;;-3.26;93.80;102048.41;4996276;28;20035;-75
2022/03/05 04:56:41;;;;;;;68.35;27.50;;;;;;;-3.26;94.29;102055.97;4978666;28;20038;-74
2022/03/05 04:59:06;;;;;;;69.10;27.58;;;;;;;-3.41;94.59;102023.81;4996102;28;20026;-75
2022/03/05 05:01:32;;;;;;;62.58;26.73;;;;;;;-3.23;94.48;102054.38;4995948;28;20038;-76
2022/03/05 05:03:57;;;;;;;64.20;26.10;;;;;;;-3.24;94.50;102047.63;4995980;28;20076;-75
2022/03/05 05:06:24;;;;;;;63.55;25.35;;;;;;;-3.27;94.57;102050.06;4996093;28;20439;-75
2022/03/05 05:08:50;;;;;;;68.28;26.52;;;;;;;-3.32;94.24;102048.34;4996133;28;20427;-75
2022/03/05 05:11:16;;;;;;;69.82;27.13;;;;;;;-3.30;93.96;102052.56;4995900;28;20023;-75
2022/03/05 05:13:41;;;;;;;66.90;26.42;;;;;;;-3.30;94.62;102055.09;4978253;28;20126;-75
2022/03/05 05:16:06;;;;;;;64.20;26.58;;;;;;;-3.47;94.61;102033.81;4995886;28;20436;-76
2022/03/05 05:18:33;;;;;;;67.03;27.23;;;;;;;-3.46;95.04;102036.34;4978203;28;20023;-75
2022/03/05 05:20:58;;;;;;;69.50;27.25;;;;;;;-3.60;94.80;102011.75;4995806;28;20427;-75
2022/03/05 05:23:24;;;;;;;63.35;25.92;;;;;;;-3.32;94.78;102064.34;4995703;28;20061;-75
2022/03/05 05:25:49;;;;;;;64.57;26.58;;;;;;;-3.38;94.81;102049.09;4995674;28;20030;-75
2022/03/05 05:28:15;;;;;;;72.68;27.90;;;;;;;-3.54;94.74;102024.44;4995617;28;20022;-75
2022/03/05 05:30:40;;;;;;;66.90;26.73;;;;;;;-3.34;95.24;102060.94;4995577;28;20081;-75
2022/03/05 05:33:05;;;;;;;69.72;28.88;;;;;;;-3.36;94.77;102062.59;4995211;28;20100;-76
2022/03/05 05:35:31;;;;;;;67.35;27.10;;;;;;;-3.44;94.94;102048.16;4995481;28;20506;-76
2022/03/05 05:37:56;;;;;;;64.32;28.13;;;;;;;-3.33;95.30;102080.31;4995554;28;20034;-76
2022/03/05 05:40:21;;;;;;;64.50;25.92;;;;;;;-3.34;95.36;102072.69;4995462;28;20146;-76
2022/03/05 05:42:47;;;;;;;67.28;27.40;;;;;;;-3.34;95.31;102075.22;4995074;28;20057;-78
2022/03/05 05:45:12;;;;;;;66.97;26.42;;;;;;;-3.32;95.04;102076.13;4995075;28;20027;-77
2022/03/05 05:47:37;;;;;;;68.43;26.13;;;;;;;-3.33;94.81;102082.84;4995220;28;20026;-76
2022/03/05 05:50:05;;;;;;;73.50;28.38;;;;;;;-3.51;95.35;102047.22;4994988;28;20109;-76
2022/03/05 05:52:30;;;;;;;70.47;28.45;;;;;;;-3.32;94.88;102079.50;4994485;28;20022;-76
2022/03/05 05:54:56;;;;;;;67.03;27.05;;;;;;;-3.27;95.12;102084.59;4995061;28;20404;-76
2022/03/05 05:57:21;;;;;;;66.40;27.33;;;;;;;-3.26;95.15;102089.66;4995227;28;20030;-78
2022/03/05 05:59:46;;;;;;;69.93;28.70;;;;;;;-3.25;94.92;102087.97;4994707;28;20076;-82
2022/03/05 06:02:12;;;;;;;67.40;27.70;;;;;;;-3.25;94.78;102087.97;4995363;28;20038;-75
2022/03/05 06:04:37;;;;;;;64.30;27.77;;;;;;;-3.26;94.76;102084.63;4994793;28;20019;-75
2022/03/05 06:07:03;;;;;;;67.78;26.65;;;;;;;-3.23;94.74;102081.31;4994844;28;20121;-75
2022/03/05 06:09:28;;;;;;;69.07;29.08;;;;;;;-3.26;94.32;102084.63;4995138;28;20018;-77
2022/03/05 06:11:54;;;;;;;65.50;27.10;;;;;;;-3.26;94.19;102079.56;4994655;28;20376;-76
2022/03/05 06:14:19;;;;;;;70.63;28.05;;;;;;;-3.23;94.73;102081.31;4994480;28;20420;-76
2022/03/05 06:16:44;;;;;;;64.68;27.02;;;;;;;-3.24;94.45;102082.13;4977978;28;20049;-76
2022/03/05 06:19:10;;;;;;;66.53;27.27;;;;;;;-3.28;94.70;102070.28;4994604;28;20026;-76
2022/03/05 06:21:35;;;;;;;75.90;29.77;;;;;;;-3.22;94.39;102083.00;4994584;28;20025;-76
2022/03/05 06:24:01;;;;;;;66.78;26.85;;;;;;;-3.24;94.69;102084.66;4994772;28;20405;-77
2022/03/05 06:26:28;;;;;;;64.55;26.48;;;;;;;-3.41;94.24;102058.31;4994478;28;20027;-76
2022/03/05 06:28:54;;;;;;;65.15;27.15;;;;;;;-3.25;94.75;102082.94;4994403;28;20077;-77
2022/03/05 06:31:19;;;;;;;70.05;27.85;;;;;;;-3.24;94.97;102084.66;4994379;28;20476;-76
2022/03/05 06:33:45;;;;;;;70.07;29.73;;;;;;;-3.23;94.86;102083.84;4994175;28;20084;-77
2022/03/05 06:36:10;;;;;;;70.90;27.65;;;;;;;-3.22;94.62;102088.06;4993955;28;20026;-76
2022/03/05 06:38:35;;;;;;;74.13;28.33;;;;;;;-3.55;94.40;102026.13;4994241;28;20030;-80
2022/03/05 06:41:01;;;;;;;76.97;28.27;;;;;;;-3.25;94.14;102072.81;4977047;28;20081;-82
2022/03/05 07:06:43;;;;;;;73.43;29.27;;;;;;;-2.85;93.37;102080.94;5543814;23;20054;-77
2022/03/05 07:09:08;;;;;;;67.82;27.60;;;;;;;-2.68;93.53;102103.06;4993929;28;20031;-72
2022/03/05 07:21:54;;;;;;;78.38;31.73;;;;;;;-2.51;92.80;102099.88;4972162;26;20393;-76
2022/03/05 07:24:20;;;;;;;78.57;32.55;;;;;;;-2.32;92.72;102129.63;4993238;28;20085;-76
2022/03/05 07:26:45;;;;;;;81.05;32.28;;;;;;;-2.26;92.34;102129.69;4993572;28;20029;-74
2022/03/05 07:29:10;;;;;;;72.38;31.02;;;;;;;-2.24;92.20;102114.53;4997784;28;20033;-77
2022/03/05 07:31:37;;;;;;;74.57;30.63;;;;;;;-2.37;91.94;102076.41;5013680;28;20053;-73
2022/03/05 07:34:03;;;;;;;78.50;31.45;;;;;;;-2.08;91.97;102122.25;5013326;28;20045;-74
2022/03/05 07:36:30;;;;;;;75.53;30.40;;;;;;;-2.00;92.13;102119.81;5012956;28;20029;-76
2022/03/05 07:38:55;;;;;;;72.20;29.80;;;;;;;-1.95;91.64;102115.66;5012779;28;20053;-74
2022/03/05 07:41:20;;;;;;;73.63;30.25;;;;;;;-1.95;91.44;102110.59;5012688;28;20057;-75
2022/03/05 07:43:46;;;;;;;70.88;29.42;;;;;;;-2.22;91.28;102052.97;5013203;28;20354;-75
2022/03/05 07:46:11;;;;;;;77.60;32.03;;;;;;;-1.77;90.91;102125.94;5012795;28;20033;-75
2022/03/05 07:48:36;;;;;;;74.68;30.05;;;;;;;-1.97;90.82;102075.94;5012585;28;20030;-74
2022/03/05 07:51:02;;;;;;;68.30;28.58;;;;;;;-1.78;91.21;102095.53;5013023;28;20022;-75
2022/03/05 07:53:29;;;;;;;77.30;29.85;;;;;;;-1.93;90.51;102059.97;5017893;23;20030;-74
2022/03/05 07:55:55;;;;;;;74.10;30.30;;;;;;;-1.50;90.74;102119.38;4993171;28;20038;-82
2022/03/05 07:58:20;;;;;;;73.18;30.52;;;;;;;-1.59;90.17;102099.91;4993012;28;20033;-74
2022/03/05 08:00:46;;;;;;;67.95;27.48;;;;;;;-1.73;89.64;102068.56;4993170;28;20027;-75
2022/03/05 08:03:12;;;;;;;74.03;30.20;;;;;;;-1.40;89.57;102122.84;4993125;28;20065;-76
2022/03/05 08:05:37;;;;;;;74.13;29.83;;;;;;;-1.33;89.12;102122.06;4993143;28;20030;-76
2022/03/05 08:08:03;;;;;;;71.82;30.73;;;;;;;-1.34;88.88;102112.75;4992887;28;20093;-76
2022/03/05 08:10:29;;;;;;;71.43;29.77;;;;;;;-1.16;88.72;102143.28;4993143;28;20026;-75
2022/03/05 08:12:54;;;;;;;69.88;29.35;;;;;;;-1.12;88.74;102139.91;4992761;28;20077;-76
2022/03/05 08:15:20;;;;;;;79.05;29.90;;;;;;;-1.06;88.73;102147.56;4994280;28;20078;-76
2022/03/05 08:17:53;;;;;;;69.32;29.88;;;;;;;-1.01;88.24;102150.97;4996777;28;20026;-76
2022/03/05 08:20:19;;;;;;;74.25;29.10;;;;;;;-0.95;88.15;102147.63;4996626;28;20492;-74
2022/03/05 08:22:45;;;;;;;72.47;29.52;;;;;;;-1.08;88.08;102118.84;4996822;28;20034;-77
2022/03/05 08:25:10;;;;;;;70.82;29.40;;;;;;;-0.82;88.08;102146.84;4996901;28;20100;-76
2022/03/05 08:27:36;;;;;;;68.75;30.05;;;;;;;-0.75;87.86;102147.75;4996703;28;20041;-76
2022/03/05 08:30:03;;;;;;;72.25;29.40;;;;;;;-1.06;87.21;102084.19;4996639;28;20030;-76
2022/03/05 08:32:28;;;;;;;70.53;28.77;;;;;;;-1.05;87.03;102085.06;4995249;28;20045;-76
2022/03/05 08:34:53;;;;;;;70.85;30.60;;;;;;;-0.62;86.92;102152.88;4996396;28;20034;-75
2022/03/05 08:37:19;;;;;;;69.10;28.85;;;;;;;-0.57;86.96;102163.06;4996610;28;20062;-76
2022/03/05 08:39:44;;;;;;;78.00;29.63;;;;;;;-0.51;87.04;102152.06;4995108;28;20060;-74
2022/03/05 08:42:09;;;;;;;65.57;28.25;;;;;;;-0.46;86.64;102148.72;4996484;28;20506;-75
2022/03/05 08:44:35;;;;;;;64.43;27.70;;;;;;;-0.72;85.96;102104.63;4996454;28;20042;-75
2022/03/05 08:47:00;;;;;;;68.13;29.52;;;;;;;-0.37;86.41;102160.59;4996511;28;20038;-73
2022/03/05 08:49:26;;;;;;;75.93;31.13;;;;;;;-0.30;86.39;102165.66;4996290;28;20042;-73
2022/03/05 08:51:51;;;;;;;65.60;28.27;;;;;;;-0.31;86.31;102140.28;4996327;28;20161;-74
2022/03/05 08:54:18;;;;;;;65.15;29.48;;;;;;;-0.17;85.52;102153.03;4995999;28;20081;-72
2022/03/05 08:56:43;;;;;;;71.00;30.13;;;;;;;-0.13;85.39;102153.03;4996312;28;20044;-75
2022/03/05 08:59:09;;;;;;;67.65;29.05;;;;;;;-0.41;85.70;102095.44;4995165;28;20022;-76
2022/03/05 09:01:34;;;;;;;66.20;29.13;;;;;;;-0.02;85.25;102153.91;4994709;28;20038;-74
2022/03/05 09:04:00;;;;;;;70.88;28.77;;;;;;;0.03;85.01;102151.38;4996051;28;20042;-75
2022/03/05 09:06:25;;;;;;;70.20;28.95;;;;;;;0.08;85.43;102147.16;4996001;28;20062;-75
2022/03/05 09:08:50;;;;;;;63.28;29.23;;;;;;;-0.10;84.68;102109.91;4994666;28;20038;-76
2022/03/05 09:11:17;;;;;;;65.95;29.67;;;;;;;0.14;83.76;102147.16;4996005;28;20026;-75
2022/03/05 09:13:42;;;;;;;65.22;29.73;;;;;;;0.20;84.28;102148.88;4995827;28;20057;-75
2022/03/05 09:16:07;;;;;;;67.22;27.25;;;;;;;-0.08;83.30;102094.66;4995866;28;20026;-76
2022/03/05 09:18:32;;;;;;;66.00;28.95;;;;;;;0.23;83.14;102142.09;4995630;28;20030;-75
2022/03/05 09:20:58;;;;;;;69.03;28.95;;;;;;;0.30;83.23;102148.03;4995850;28;20101;-75
2022/03/05 09:23:23;;;;;;;66.80;29.67;;;;;;;0.35;82.62;102151.41;4995775;28;20173;-73
2022/03/05 09:25:49;;;;;;;68.88;29.92;;;;;;;0.40;82.77;102144.66;4995584;28;20169;-74
2022/03/05 09:28:14;;;;;;;66.63;28.88;;;;;;;0.45;82.69;102145.47;4994800;28;20038;-74
2022/03/05 09:30:39;;;;;;;64.10;29.92;;;;;;;0.50;81.44;102142.97;4995378;28;20034;-74
2022/03/05 09:33:04;;;;;;;69.20;29.95;;;;;;;0.54;82.19;102135.31;4995256;28;20042;-73
2022/03/05 09:35:30;;;;;;;69.25;29.63;;;;;;;0.59;81.56;102140.41;4995630;28;20026;-73
2022/03/05 09:37:55;;;;;;;71.13;30.02;;;;;;;0.42;82.02;102091.28;4995482;28;20026;-75
2022/03/05 09:40:20;;;;;;;71.88;30.15;;;;;;;0.51;81.42;102093.81;4993680;28;20042;-73
2022/03/05 09:42:46;;;;;;;68.20;28.60;;;;;;;0.78;81.92;102131.03;4995437;28;20026;-72
2022/03/05 09:45:13;;;;;;;69.13;29.60;;;;;;;0.85;81.84;102125.94;4995099;28;20026;-74
2022/03/05 09:47:41;;;;;;;69.68;30.83;;;;;;;0.95;81.58;102131.03;4995050;28;20317;-73
2022/03/05 09:50:08;;;;;;;63.65;28.92;;;;;;;0.78;81.19;102093.75;4995180;28;20106;-74
2022/03/05 09:52:34;;;;;;;63.88;30.20;;;;;;;0.85;80.54;102107.31;4995204;28;20031;-75
2022/03/05 09:55:01;;;;;;;63.72;28.42;;;;;;;1.09;79.94;102139.47;4995042;28;20054;-75
2022/03/05 09:57:26;;;;;;;67.22;29.90;;;;;;;0.88;79.50;102093.72;4995094;28;20054;-75
2022/03/05 09:59:52;;;;;;;62.55;29.00;;;;;;;1.03;79.76;102114.03;4994837;28;20026;-76
2022/03/05 10:02:18;;;;;;;65.53;30.42;;;;;;;1.09;79.33;102122.53;4995067;28;20630;-75
2022/03/05 10:04:43;;;;;;;62.50;29.10;;;;;;;1.12;79.39;102119.09;4994949;28;20583;-76
2022/03/05 10:07:12;;;;;;;64.13;29.73;;;;;;;1.33;79.07;102143.63;4994842;28;20087;-74
2022/03/05 10:09:39;;;;;;;65.72;29.77;;;;;;;1.26;79.47;102107.16;4994861;28;20034;-74
2022/03/05 10:12:31;;;;;;;60.20;28.65;;;;;;;1.47;78.45;102133.38;4994825;28;20054;-75
2022/03/05 10:15:17;;;;;;;67.50;30.20;;;;;;;1.57;78.50;102129.94;4994730;28;20424;-72
2022/03/05 10:17:48;;;;;;;62.20;28.45;;;;;;;1.67;77.29;102141.78;5001499;23;20054;-72
2022/03/05 10:20:14;;;;;;;61.20;29.00;;;;;;;1.72;77.50;102134.97;4994744;28;20026;-73
2022/03/05 10:22:53;;;;;;;66.95;30.85;;;;;;;1.81;77.43;102131.53;4994402;28;20077;-72
2022/03/05 10:25:30;;;;;;;67.82;30.20;;;;;;;1.97;77.10;102140.78;4994273;28;20037;-73
2022/03/05 10:28:06;;;;;;;64.72;30.52;;;;;;;2.09;76.87;102143.25;4994363;28;20026;-72
2022/03/05 10:30:34;;;;;;;66.30;30.27;;;;;;;2.12;75.38;102137.28;4994385;28;20089;-73
2022/03/05 10:33:00;;;;;;;69.47;31.45;;;;;;;1.99;76.18;102095.75;4992974;28;20429;-73
2022/03/05 10:35:26;;;;;;;71.43;31.17;;;;;;;2.28;75.42;102136.31;4994316;28;20069;-75
2022/03/05 10:37:52;;;;;;;68.10;30.73;;;;;;;2.29;74.59;102136.28;4992717;28;20027;-75
2022/03/05 10:40:33;;;;;;;66.22;30.10;;;;;;;2.22;75.79;102118.50;4994169;28;20030;-73
2022/03/05 10:43:02;;;;;;;67.35;33.65;;;;;;;2.28;76.93;102118.47;4994095;28;20030;-73
2022/03/05 10:45:29;;;;;;;69.80;31.95;;;;;;;2.28;75.19;102111.66;4994052;28;20030;-74
2022/03/05 10:47:56;;;;;;;69.22;31.75;;;;;;;2.41;74.78;102121.75;4993934;28;20019;-76
2022/03/05 10:50:27;;;;;;;64.22;32.35;;;;;;;2.43;74.31;102122.56;4993955;28;20061;-74
2022/03/05 10:52:56;;;;;;;67.40;31.83;;;;;;;2.61;74.50;102141.97;4993974;28;20368;-75
2022/03/05 10:55:24;;;;;;;65.05;32.72;;;;;;;2.67;74.64;102124.94;4993980;28;20030;-75
2022/03/05 10:57:56;;;;;;;62.45;33.00;;;;;;;2.87;72.75;102137.47;4993982;28;20022;-72
2022/03/05 11:00:21;;;;;;;60.25;31.13;;;;;;;2.97;72.24;102133.97;4994072;28;20101;-75
2022/03/05 11:02:51;;;;;;;62.90;30.42;;;;;;;3.00;71.39;102138.19;4993944;28;20109;-74
2022/03/05 11:05:19;;;;;;;60.58;31.48;;;;;;;3.03;70.10;102136.44;4993863;28;20030;-74
2022/03/05 11:07:50;;;;;;;56.92;29.77;;;;;;;2.92;69.54;102114.47;4993959;28;20027;-73
2022/03/05 11:10:27;;;;;;;57.33;30.38;;;;;;;2.85;70.29;102100.91;4993976;28;20480;-75
2022/03/05 11:12:56;;;;;;;57.40;28.15;;;;;;;3.04;68.22;102135.56;4993640;28;20468;-75
2022/03/05 11:15:23;;;;;;;52.22;26.77;;;;;;;2.88;66.52;102101.75;4993466;28;20048;-76
2022/03/05 11:17:51;;;;;;;52.00;27.55;;;;;;;3.09;67.34;102131.28;4993215;28;20049;-75
2022/03/05 11:20:17;;;;;;;52.70;27.83;;;;;;;3.09;65.53;102121.06;4993729;28;20026;-77
2022/03/05 11:22:49;;;;;;;51.97;27.40;;;;;;;3.07;65.87;102104.94;4993222;28;20104;-75
2022/03/05 11:25:19;;;;;;;53.60;26.88;;;;;;;3.30;64.97;102121.69;4993738;28;20480;-75
2022/03/05 11:28:00;;;;;;;51.25;26.77;;;;;;;3.21;65.14;102102.22;4993569;28;20487;-74
2022/03/05 11:30:26;;;;;;;56.22;26.42;;;;;;;3.19;65.02;102100.56;4993542;28;20026;-75
2022/03/05 11:32:52;;;;;;;54.20;28.40;;;;;;;3.28;64.85;102113.22;4992951;28;20027;-75
2022/03/05 11:35:19;;;;;;;51.55;27.00;;;;;;;3.35;65.80;102123.34;4993426;28;20057;-75
2022/03/05 11:37:47;;;;;;;54.28;26.58;;;;;;;3.45;65.41;102124.91;4992144;28;20022;-76
2022/03/05 11:40:35;;;;;;;51.75;25.80;;;;;;;3.33;64.72;102089.28;4993568;28;20030;-75
2022/03/05 11:43:19;;;;;;;52.22;26.23;;;;;;;3.67;65.02;102122.91;4993210;28;20081;-75
2022/03/05 11:46:03;;;;;;;48.20;25.77;;;;;;;3.69;64.04;102099.91;4993442;28;20026;-75